M I D A S
Marine Information and Data Acquisition System
Tripno 2276 of the Zeeleeuw from 2012-03-15 07:47:01 to 2012-03-15 15:21:42
Back to CruiseResearch ActivitiesStationsMapUnderway DataData graphs

EquipmentUnitsComment
TimeDGPSUTC
LatitudeDGPSDM.mWGS84
LongitudeDGPSDM.mWGS84
TemperatureSBE03/SBE38deg celciusITS90
ConductivitySBE21S/mITS90
SalinitySBE21 Practical Salinity Units
ChlorophylAChelsea fluorimeterg/lCalibrated in Aceton
Missing or incorrect values are displayed as -999
Sea surface data collected by the RV Zeeleeuw from 2012-03-15 06:55:46 to 2012-03-15 15:38:40
Time Latitude Longitude Temperature Conductivity Salinity ChlorophylA
2012-03-15 06:56:51 51°13.635 2°56.018 12.9069 3.900844 27.193502 -2.458615
2012-03-15 06:57:51 51°13.636 2°56.019 12.9106 3.90043 27.192718 -2.458615
2012-03-15 06:58:51 51°13.635 2°56.018 12.9126 3.899705 27.189527 -2.458615
2012-03-15 06:59:51 51°13.635 2°56.018 12.9004 3.900326 27.197254 -2.458615
2012-03-15 07:00:51 51°13.636 2°56.019 12.9059 3.899808 27.195183 -2.458615
2012-03-15 07:01:50 51°13.636 2°56.018 12.9147 3.899809 27.198096 -2.458615
2012-03-15 07:02:51 51°13.637 2°56.02 12.9162 3.898772 27.19201 -2.458615
2012-03-15 07:03:50 51°13.636 2°56.019 12.9201 3.898773 27.195409 -2.458615
2012-03-15 07:04:51 51°13.636 2°56.02 12.9231 3.898669 27.197035 -2.458615
2012-03-15 07:05:51 51°13.636 2°56.019 12.9357 3.897218 27.188221 -2.458615
2012-03-15 07:06:51 51°13.636 2°56.019 12.8568 3.903746 27.241251 -2.458615
2012-03-15 07:07:51 51°13.636 2°56.02 12.8849 3.902917 27.237257 -2.458615
2012-03-15 07:08:51 51°13.636 2°56.02 12.8918 3.900845 27.223623 -2.458615
2012-03-15 07:09:51 51°13.636 2°56.021 12.9096 3.900534 27.224131 -2.458615
2012-03-15 07:10:51 51°13.635 2°56.019 12.9028 3.901363 27.232992 -2.458615
2012-03-15 07:11:51 51°13.635 2°56.019 12.9016 3.901778 27.23864 -2.458615
2012-03-15 07:12:51 51°13.636 2°56.02 12.9097 3.90157 27.239954 -2.458615
2012-03-15 07:13:51 51°13.635 2°56.02 12.9187 3.901363 27.241756 -2.458615
2012-03-15 07:14:51 51°13.635 2°56.019 12.9269 3.900016 27.233742 -2.458615
2012-03-15 07:15:51 51°13.635 2°56.02 12.9426 3.899498 27.233618 -2.458615
2012-03-15 07:16:50 51°13.635 2°56.02 13.0267 3.890485 27.167091 -2.458615
2012-03-15 07:17:50 51°13.635 2°56.02 13.0172 3.889863 27.165184 -2.458615
2012-03-15 07:18:51 51°13.635 2°56.019 13.0099 3.889967 27.16939 -2.458615
2012-03-15 07:19:51 51°13.636 2°56.02 13.0029 3.889138 27.165875 -2.458615
2012-03-15 07:20:51 51°13.636 2°56.02 12.9991 3.889656 27.172326 -2.458615
2012-03-15 07:21:50 51°13.636 2°56.02 13.0059 3.889034 27.170419 -2.458615
2012-03-15 07:22:50 51°13.636 2°56.02 13.0048 3.889034 27.172851 -2.458615
2012-03-15 07:23:50 51°13.636 2°56.019 13.0148 3.888413 27.170944 -2.458615
2012-03-15 07:24:50 51°13.636 2°56.019 13.0191 3.887688 27.168232 -2.458615
2012-03-15 07:25:51 51°13.635 2°56.019 13.0252 3.888309 27.175491 -2.458615
2012-03-15 07:26:51 51°13.635 2°56.019 13.0265 3.888931 27.183238 -2.458615
2012-03-15 07:27:51 51°13.635 2°56.019 13.0349 3.887895 27.178114 -2.458615
2012-03-15 07:28:51 51°13.635 2°56.019 13.0448 3.88717 27.175402 -2.458615
2012-03-15 07:29:51 51°13.635 2°56.019 13.0585 3.886652 27.173813 -2.458615
2012-03-15 07:30:51 51°13.635 2°56.019 13.0559 3.885409 27.167077 -2.458615
2012-03-15 07:31:51 51°13.635 2°56.019 13.0584 3.885616 27.171608 -2.458615
2012-03-15 07:32:51 51°13.635 2°56.019 13.0543 3.88717 27.186117 -2.458615
2012-03-15 07:33:51 51°13.635 2°56.019 13.0735 3.88458 27.168428 -2.458615
2012-03-15 07:34:51 51°13.636 2°56.017 13.0166 3.897738 27.273618 -2.458615
2012-03-15 07:35:51 51°13.647 2°55.955 13.0872 3.887067 27.19311 -2.458615
2012-03-15 07:36:51 51°13.671 2°55.863 13.0918 3.886756 27.193619 -2.458615
2012-03-15 07:37:51 51°13.718 2°55.772 13.0575 3.863237 27.013817 -2.458615
2012-03-15 07:38:51 51°13.773 2°55.688 13.0667 3.879814 27.144541 -2.458615
2012-03-15 07:39:51 51°13.865 2°55.627 13.0921 3.872562 27.092559 -2.458615
2012-03-15 07:40:51 51°13.948 2°55.657 13.0668 3.871837 27.089839 -2.458615
2012-03-15 07:41:51 51°13.972 2°55.67 13.0172 3.866139 27.046531 -2.458615
2012-03-15 07:42:51 51°13.994 2°55.607 12.9412 3.872976 27.104045 -2.458615
2012-03-15 07:43:51 51°14.073 2°55.503 12.8244 3.870801 27.088105 -2.458615
2012-03-15 07:44:51 51°14.184 2°55.392 6.9924 3.123877 28.42555 -2.458615
2012-03-15 07:45:51 51°14.303 2°55.271 6.6391 2.637096 25.111402 -2.458615
2012-03-15 07:46:51 51°14.435 2°55.136 6.4286 2.369707 22.584293 -2.458615
2012-03-15 07:47:49 51°14.581 2°55 6.3436 2.220887 21.166272 -2.458615
2012-03-15 07:48:48 51°14.73 2°54.829 6.3272 2.02535 19.186921 -2.458615
2012-03-15 07:49:47 51°14.896 2°54.648 6.326 1.980245 18.726297 -2.458615
2012-03-15 07:50:47 51°15.069 2°54.445 6.3655 1.961874 18.549108 -2.458615
2012-03-15 07:51:47 51°15.248 2°54.265 6.3558 1.949799 18.410475 -2.458615
2012-03-15 07:52:47 51°15.416 2°54.065 6.2794 3.057289 30.181345 -2.458615
2012-03-15 07:53:47 51°15.575 2°53.846 6.2348 3.048705 30.161559 -2.458615
2012-03-15 07:54:48 51°15.756 2°53.653 6.2321 3.05305 30.235754 -2.458615
2012-03-15 07:55:47 51°15.922 2°53.454 6.1964 3.055015 30.267295 -2.458615
2012-03-15 07:56:47 51°16.091 2°53.25 6.1732 3.065566 30.42488 -2.458615
2012-03-15 07:57:47 51°16.257 2°53.04 6.1744 3.072186 30.51018 -2.458615
2012-03-15 07:58:47 51°16.443 2°52.872 6.1744 3.076014 30.560662 -2.458615
2012-03-15 07:59:47 51°16.617 2°52.677 6.1828 3.083255 30.640208 -2.458615
2012-03-15 08:00:47 51°16.802 2°52.512 6.1914 3.087909 30.680316 -2.458615
2012-03-15 08:01:48 51°16.988 2°52.344 6.1898 3.111392 30.936721 -2.458615
2012-03-15 08:02:47 51°17.154 2°52.142 6.1819 3.116978 31.000739 -2.458615
2012-03-15 08:03:47 51°17.292 2°51.892 6.1075 3.114806 31.003447 -2.458615
2012-03-15 08:04:47 51°17.445 2°51.659 6.0694 3.098255 30.879474 -2.458615
2012-03-15 08:05:47 51°17.613 2°51.452 6.0486 3.096807 30.890959 -2.458615
2012-03-15 08:06:47 51°17.796 2°51.277 6.0322 3.107048 31.025517 -2.458615
2012-03-15 08:07:47 51°17.976 2°51.092 6.0229 3.107462 31.040448 -2.458615
2012-03-15 08:08:47 51°18.15 2°50.893 6.0225 3.104773 31.022818 -2.458615
2012-03-15 08:09:47 51°18.31 2°50.668 5.9806 3.098566 30.970616 -2.458615
2012-03-15 08:10:47 51°18.489 2°50.478 5.8869 3.090498 30.91761 -2.458615
2012-03-15 08:11:47 51°18.665 2°50.285 5.7704 3.067328 30.75749 -2.458615
2012-03-15 08:12:47 51°18.835 2°50.073 5.6988 3.049641 30.649836 -2.458615
2012-03-15 08:13:47 51°19.007 2°49.868 5.6137 3.04385 30.657788 -2.458615
2012-03-15 08:14:47 51°19.194 2°49.697 5.5521 3.043437 30.725817 -2.458615
2012-03-15 08:15:47 51°19.374 2°49.512 5.5316 3.045196 30.788002 -2.458615
2012-03-15 08:16:47 51°19.551 2°49.315 5.5266 3.04323 30.781697 -2.458615
2012-03-15 08:17:47 51°19.739 2°49.141 5.5306 3.038266 30.736628 -2.458615
2012-03-15 08:18:47 51°19.922 2°48.954 5.5339 3.044161 30.795587 -2.458615
2012-03-15 08:19:47 51°20.107 2°48.769 5.5413 3.044575 30.798471 -2.458615
2012-03-15 08:20:47 51°20.292 2°48.588 5.5402 3.054608 30.908054 -2.458615
2012-03-15 08:21:47 51°20.483 2°48.435 5.5289 3.075917 31.146511 -2.458615
2012-03-15 08:22:47 51°20.683 2°48.348 5.5369 3.087295 31.279252 -2.458615
2012-03-15 08:23:47 51°20.877 2°48.276 5.543 3.093088 31.340622 -2.458615
2012-03-15 08:24:47 51°21.064 2°48.175 5.5396 3.09495 31.357942 -2.458615
2012-03-15 08:25:47 51°21.26 2°48.096 5.5304 3.096088 31.372468 -2.458615
2012-03-15 08:26:47 51°21.461 2°48.028 5.5331 3.095881 31.379021 -2.458615
2012-03-15 08:27:47 51°21.665 2°47.92 5.53 3.093812 31.357603 -2.458615
2012-03-15 08:28:47 51°21.876 2°47.835 5.5351 3.098054 31.402487 -2.458615
2012-03-15 08:29:47 51°22.058 2°47.661 5.541 3.095261 31.373838 -2.458615
2012-03-15 08:30:48 51°22.201 2°47.406 5.5418 3.098674 31.405005 -2.458615
2012-03-15 08:31:47 51°22.34 2°47.155 5.5421 3.101054 31.427234 -2.458615
2012-03-15 08:32:47 51°22.476 2°46.891 5.5457 3.102502 31.447915 -2.458615
2012-03-15 08:33:47 51°22.622 2°46.64 5.5539 3.104984 31.468634 -2.458615
2012-03-15 08:34:47 51°22.773 2°46.396 5.5805 3.127536 31.709043 -2.458615
2012-03-15 08:35:47 51°22.904 2°46.12 5.5816 3.155159 31.997419 -2.458615
2012-03-15 08:36:47 51°23.058 2°45.875 5.5881 3.157538 32.025037 -2.458615
2012-03-15 08:37:47 51°23.203 2°45.623 5.6162 3.163642 32.082703 -2.458615
2012-03-15 08:38:47 51°23.35 2°45.371 5.6222 3.174298 32.181468 -2.458615
2012-03-15 08:39:47 51°23.508 2°45.139 5.6292 3.177609 32.213181 -2.458615
2012-03-15 08:40:47 51°23.654 2°44.89 5.6372 3.178747 32.220502 -2.458615
2012-03-15 08:41:47 51°23.807 2°44.65 5.6436 3.181747 32.246902 -2.458615
2012-03-15 08:42:47 51°23.958 2°44.409 5.6591 3.187955 32.305647 -2.458615
2012-03-15 08:43:47 51°24.12 2°44.187 5.6791 3.196543 32.385603 -2.458615
2012-03-15 08:44:47 51°24.257 2°44.037 5.6984 3.205958 32.476634 -2.458615
2012-03-15 08:45:47 51°24.33 2°43.931 5.7093 3.212787 32.536777 -2.458615
2012-03-15 08:46:47 51°24.402 2°43.857 5.7141 3.216925 32.573127 -2.458615
2012-03-15 08:47:47 51°24.48 2°43.809 5.7173 3.219305 32.596155 -2.458615
2012-03-15 08:48:47 51°24.559 2°43.763 5.7165 3.220754 32.609652 -2.458615
2012-03-15 08:49:47 51°24.627 2°43.731 5.7209 3.221789 32.620341 -2.458615
2012-03-15 08:50:47 51°24.669 2°43.7 5.7235 3.224065 32.642204 -2.458615
2012-03-15 08:51:50 51°24.67 2°43.702 5.7264 3.224996 32.648058 -2.458615
2012-03-15 08:52:49 51°24.67 2°43.707 5.7269 3.22541 32.650864 -2.458615
2012-03-15 08:53:48 51°24.672 2°43.711 5.7271 3.225617 32.652267 -2.458615
2012-03-15 08:54:47 51°24.675 2°43.715 5.7288 3.225824 32.655506 -2.458615
2012-03-15 08:55:47 51°24.674 2°43.717 5.729 3.226031 32.655072 -2.458615
2012-03-15 08:56:47 51°24.671 2°43.721 5.7267 3.226238 32.658311 -2.458615
2012-03-15 08:57:50 51°24.652 2°43.727 5.7305 3.226341 32.658553 -2.458615
2012-03-15 08:58:50 51°24.636 2°43.732 5.733 3.226548 32.658119 -2.458615
2012-03-15 08:59:48 51°24.636 2°43.733 5.7343 3.226652 32.660198 -2.458615
2012-03-15 09:00:47 51°24.638 2°43.733 5.7318 3.226652 32.65928 -2.458615
2012-03-15 09:01:47 51°24.64 2°43.733 5.7336 3.222099 32.610063 -2.458615
2012-03-15 09:02:47 51°24.641 2°43.736 5.7307 3.221892 32.605909 -2.458615
2012-03-15 09:03:47 51°24.641 2°43.738 5.7315 3.221788 32.605666 -2.458615
2012-03-15 09:04:47 51°24.643 2°43.74 5.733 3.221995 32.607069 -2.458615
2012-03-15 09:05:47 51°24.647 2°43.74 5.7372 3.221995 32.604319 -2.458615
2012-03-15 09:06:48 51°24.646 2°43.744 5.7354 3.222202 32.603889 -2.458615
2012-03-15 09:07:49 51°24.641 2°43.751 5.7411 3.221995 32.60157 -2.458615
2012-03-15 09:08:47 51°24.639 2°43.755 5.742 3.222306 32.600467 -2.458615
2012-03-15 09:09:47 51°24.639 2°43.756 5.7408 3.222306 32.6023 -2.458615
2012-03-15 09:10:47 51°24.641 2°43.756 5.7433 3.222409 32.601627 -2.458615
2012-03-15 09:11:47 51°24.644 2°43.752 5.7448 3.222616 32.602114 -2.458615
2012-03-15 09:12:47 51°24.648 2°43.75 5.7506 3.222926 32.59918 -2.458615
2012-03-15 09:13:47 51°24.647 2°43.747 5.7455 3.22303 32.598507 -2.458615
2012-03-15 09:14:47 51°24.64 2°43.747 5.7436 3.222616 32.598449 -2.458615
2012-03-15 09:15:47 51°24.631 2°43.747 5.7422 3.222513 32.59729 -2.458615
2012-03-15 09:16:47 51°24.631 2°43.744 5.7411 3.222306 32.595887 -2.458615
2012-03-15 09:17:47 51°24.633 2°43.738 5.7405 3.222099 32.595399 -2.458615
2012-03-15 09:18:47 51°24.636 2°43.733 5.744 3.222099 32.595399 -2.458615
2012-03-15 09:19:47 51°24.636 2°43.729 5.7435 3.222099 32.595399 -2.458615
2012-03-15 09:20:49 51°24.628 2°43.736 5.7415 3.222409 32.595214 -2.458615
2012-03-15 09:21:49 51°24.617 2°43.749 5.7464 3.221995 32.596072 -2.458615
2012-03-15 09:22:48 51°24.609 2°43.759 5.7439 3.221995 32.592408 -2.458615
2012-03-15 09:23:47 51°24.606 2°43.764 5.7448 3.221995 32.591492 -2.458615
2012-03-15 09:24:47 51°24.606 2°43.765 5.7439 3.221995 32.592408 -2.458615
2012-03-15 09:25:47 51°24.608 2°43.764 5.7461 3.222202 32.589232 -2.458615
2012-03-15 09:26:47 51°24.609 2°43.762 5.7387 3.221892 32.592164 -2.458615
2012-03-15 09:27:47 51°24.61 2°43.762 5.738 3.221581 32.58777 -2.458615
2012-03-15 09:28:47 51°24.607 2°43.761 5.7401 3.221374 32.588198 -2.458615
2012-03-15 09:29:47 51°24.605 2°43.759 5.741 3.221167 32.58771 -2.458615
2012-03-15 09:30:47 51°24.605 2°43.755 5.7416 3.221167 32.585879 -2.458615
2012-03-15 09:31:47 51°24.606 2°43.749 5.7409 3.221374 32.585451 -2.458615
2012-03-15 09:32:47 51°24.609 2°43.742 5.7432 3.221581 32.58777 -2.458615
2012-03-15 09:33:47 51°24.613 2°43.733 5.7455 3.221581 32.58777 -2.458615
2012-03-15 09:34:47 51°24.618 2°43.724 5.747 3.221581 32.585938 -2.458615
2012-03-15 09:35:47 51°24.619 2°43.715 5.7438 3.221685 32.586182 -2.458615
2012-03-15 09:36:47 51°24.614 2°43.705 5.7437 3.221685 32.584351 -2.458615
2012-03-15 09:37:47 51°24.606 2°43.695 5.7466 3.221581 32.584107 -2.458615
2012-03-15 09:38:47 51°24.597 2°43.689 5.7477 3.221478 32.582032 -2.458615
2012-03-15 09:39:47 51°24.59 2°43.681 5.7516 3.221685 32.581604 -2.458615
2012-03-15 09:40:47 51°24.586 2°43.672 5.7466 3.221788 32.581848 -2.458615
2012-03-15 09:41:47 51°24.582 2°43.663 5.744 3.221374 32.581788 -2.458615
2012-03-15 09:42:47 51°24.58 2°43.653 5.7455 3.221167 32.580385 -2.458615
2012-03-15 09:43:47 51°24.579 2°43.643 5.7441 3.221271 32.581544 -2.458615
2012-03-15 09:44:47 51°24.581 2°43.634 5.7421 3.221064 32.580141 -2.458615
2012-03-15 09:45:47 51°24.585 2°43.622 5.7463 3.220857 32.578737 -2.458615
2012-03-15 09:46:47 51°24.589 2°43.61 5.7431 3.221064 32.57831 -2.458615
2012-03-15 09:47:47 51°24.594 2°43.598 5.7466 3.220754 32.577578 -2.458615
2012-03-15 09:48:47 51°24.6 2°43.586 5.7484 3.220857 32.575076 -2.458615
2012-03-15 09:49:47 51°24.607 2°43.574 5.7606 3.22096 32.573489 -2.458615
2012-03-15 09:50:47 51°24.612 2°43.562 5.7647 3.220546 32.562449 -2.458615
2012-03-15 09:51:47 51°24.619 2°43.55 5.7641 3.222098 32.57343 -2.458615
2012-03-15 09:52:47 51°24.624 2°43.538 5.7673 3.222098 32.574344 -2.458615
2012-03-15 09:53:47 51°24.631 2°43.529 5.7701 3.222305 32.571174 -2.458615
2012-03-15 09:54:47 51°24.637 2°43.519 5.772 3.222719 32.57215 -2.458615
2012-03-15 09:55:47 51°24.644 2°43.51 5.7816 3.222616 32.569163 -2.458615
2012-03-15 09:56:47 51°24.651 2°43.508 5.779 3.223133 32.56947 -2.458615
2012-03-15 09:57:47 51°24.656 2°43.51 5.7869 3.223236 32.5688 -2.458615
2012-03-15 09:58:47 51°24.66 2°43.507 5.7908 3.223236 32.565144 -2.458615
2012-03-15 09:59:47 51°24.663 2°43.502 5.7855 3.22334 32.56356 -2.458615
2012-03-15 10:00:47 51°24.667 2°43.494 5.7825 3.223443 32.569288 -2.458615
2012-03-15 10:01:47 51°24.672 2°43.485 5.7764 3.223236 32.571542 -2.458615
2012-03-15 10:02:47 51°24.676 2°43.477 5.7737 3.222823 32.57148 -2.458615
2012-03-15 10:03:47 51°24.679 2°43.477 5.774 3.222926 32.569896 -2.458615
2012-03-15 10:04:47 51°24.682 2°43.489 5.7759 3.222409 32.563189 -2.458615
2012-03-15 10:05:47 51°24.681 2°43.518 5.7877 3.222616 32.563678 -2.458615
2012-03-15 10:06:47 51°24.674 2°43.56 5.7926 3.22334 32.564474 -2.458615
2012-03-15 10:07:47 51°24.665 2°43.607 5.7968 3.223236 32.559661 -2.458615
2012-03-15 10:08:47 51°24.658 2°43.645 5.799 3.223236 32.559661 -2.458615
2012-03-15 10:09:47 51°24.653 2°43.677 5.7935 3.223443 32.56015 -2.458615
2012-03-15 10:10:47 51°24.654 2°43.705 5.795 3.223236 32.560575 -2.458615
2012-03-15 10:11:47 51°24.661 2°43.722 5.7795 3.223029 32.558259 -2.458615
2012-03-15 10:12:47 51°24.668 2°43.724 5.8066 3.222926 32.556188 -2.458615
2012-03-15 10:13:47 51°24.675 2°43.721 5.8352 3.219718 32.492945 -2.458615
2012-03-15 10:14:47 51°24.682 2°43.717 5.8579 3.223339 32.498819 -2.458615
2012-03-15 10:15:47 51°24.687 2°43.711 5.8435 3.225201 32.505061 -2.458615
2012-03-15 10:16:47 51°24.692 2°43.704 5.8543 3.225615 32.511502 -2.458615
2012-03-15 10:17:47 51°24.695 2°43.695 5.8503 3.226029 32.510665 -2.458615
2012-03-15 10:18:47 51°24.698 2°43.683 5.8564 3.226547 32.513711 -2.458615
2012-03-15 10:19:47 51°24.7 2°43.671 5.8503 3.226547 32.522811 -2.458615
2012-03-15 10:20:47 51°24.702 2°43.655 5.8579 3.22696 32.520152 -2.458615
2012-03-15 10:21:47 51°24.704 2°43.639 5.8349 3.227271 32.529079 -2.458615
2012-03-15 10:22:47 51°24.705 2°43.631 5.8238 3.225823 32.533846 -2.458615
2012-03-15 10:23:47 51°24.7 2°43.668 5.8519 3.225616 32.524246 -2.458615
2012-03-15 10:24:47 51°24.69 2°43.735 5.8282 3.226754 32.537872 -2.458615
2012-03-15 10:25:47 51°24.688 2°43.79 5.797 3.225305 32.5226 -2.458615
2012-03-15 10:26:47 51°24.683 2°43.805 5.8223 3.223236 32.52225 -2.458615
2012-03-15 10:27:47 51°24.681 2°43.802 5.8259 3.223753 32.517099 -2.458615
2012-03-15 10:28:47 51°24.679 2°43.793 5.8343 3.22427 32.516504 -2.458615
2012-03-15 10:29:47 51°24.678 2°43.784 5.8216 3.224891 32.519798 -2.458615
2012-03-15 10:30:47 51°24.677 2°43.774 5.8326 3.224684 32.518396 -2.458615
2012-03-15 10:31:47 51°24.676 2°43.763 5.8672 3.225926 32.510419 -2.458615
2012-03-15 10:32:47 51°24.675 2°43.753 5.8663 3.227995 32.513509 -2.458615
2012-03-15 10:33:47 51°24.675 2°43.74 5.8418 3.227995 32.516237 -2.458615
2012-03-15 10:34:47 51°24.676 2°43.729 5.8304 3.22665 32.518506 -2.458615
2012-03-15 10:35:47 51°24.675 2°43.719 5.8513 3.225719 32.515388 -2.458615
2012-03-15 10:36:47 51°24.675 2°43.707 5.8601 3.226236 32.50388 -2.458615
2012-03-15 10:37:47 51°24.675 2°43.693 5.8594 3.226753 32.498745 -2.458615
2012-03-15 10:38:47 51°24.673 2°43.677 5.8527 3.226857 32.503535 -2.458615
2012-03-15 10:39:47 51°24.671 2°43.667 5.8481 3.226443 32.503462 -2.458615
2012-03-15 10:40:47 51°24.668 2°43.693 5.805 3.225615 32.503315 -2.458615
2012-03-15 10:41:47 51°24.676 2°43.75 5.8237 3.220856 32.488366 -2.458615
2012-03-15 10:42:47 51°24.686 2°43.772 5.7809 3.220649 32.466044 -2.458615
2012-03-15 10:43:50 51°24.683 2°43.754 5.806 3.217545 32.482312 -2.458615
2012-03-15 10:44:51 51°24.677 2°43.734 5.7561 3.218166 32.459216 -2.458615
2012-03-15 10:45:49 51°24.671 2°43.715 5.7648 3.215683 32.462395 -2.458615
2012-03-15 10:46:47 51°24.667 2°43.695 5.7608 3.215476 32.462812 -2.458615
2012-03-15 10:47:47 51°24.663 2°43.672 5.7477 3.215166 32.466625 -2.458615
2012-03-15 10:48:47 51°24.66 2°43.65 5.7564 3.214338 32.458277 -2.458615
2012-03-15 10:49:47 51°24.658 2°43.628 5.751 3.214648 32.46266 -2.458615
2012-03-15 10:50:47 51°24.656 2°43.605 5.7567 3.214441 32.460345 -2.458615
2012-03-15 10:51:47 51°24.661 2°43.596 5.7399 3.214234 32.462584 -2.458615
2012-03-15 10:52:47 51°24.668 2°43.629 5.7604 3.213717 32.468641 -2.458615
2012-03-15 10:53:47 51°24.677 2°43.674 5.7717 3.215579 32.443041 -2.458615
2012-03-15 10:54:47 51°24.684 2°43.711 5.7884 3.214958 32.449745 -2.458615
2012-03-15 10:55:47 51°24.678 2°43.742 5.7776 3.215062 32.436349 -2.458615
2012-03-15 10:56:47 51°24.673 2°43.736 5.748 3.214544 32.424206 -2.458615
2012-03-15 10:57:47 51°24.67 2°43.724 5.7263 3.212372 32.44539 -2.458615
2012-03-15 10:58:47 51°24.667 2°43.711 5.7231 3.210406 32.436141 -2.458615
2012-03-15 10:59:47 51°24.663 2°43.696 5.7991 3.210406 32.426127 -2.458615
2012-03-15 11:00:47 51°24.66 2°43.68 5.8153 3.215165 32.408441 -2.458615
2012-03-15 11:01:47 51°24.657 2°43.665 5.8247 3.216717 32.423048 -2.458615
2012-03-15 11:02:47 51°24.654 2°43.651 5.8315 3.217027 32.419252 -2.458615
2012-03-15 11:03:47 51°24.652 2°43.662 5.819 3.217338 32.410017 -2.458615
2012-03-15 11:04:47 51°24.671 2°43.698 5.8321 3.216303 32.412982 -2.458615
2012-03-15 11:05:47 51°24.682 2°43.742 5.8307 3.216096 32.404322 -2.458615
2012-03-15 11:06:47 51°24.675 2°43.761 5.7888 3.214234 32.399858 -2.458615
2012-03-15 11:07:47 51°24.674 2°43.74 5.7352 3.210509 32.39728 -2.458615
2012-03-15 11:08:50 51°24.673 2°43.717 5.736 3.207199 32.3957 -2.458615
2012-03-15 11:09:49 51°24.668 2°43.709 5.7192 3.206267 32.394375 -2.458615
2012-03-15 11:10:47 51°24.665 2°43.698 5.7197 3.205233 32.395532 -2.458615
2012-03-15 11:11:47 51°24.663 2°43.682 5.7334 3.204716 32.38974 -2.458615
2012-03-15 11:12:47 51°24.66 2°43.666 5.7487 3.205233 32.377342 -2.458615
2012-03-15 11:13:47 51°24.657 2°43.649 5.7673 3.20575 32.375858 -2.458615
2012-03-15 11:14:47 51°24.653 2°43.631 5.7926 3.206578 32.366041 -2.458615
2012-03-15 11:15:47 51°24.649 2°43.612 5.8599 3.208957 32.358159 -2.458615
2012-03-15 11:16:47 51°24.647 2°43.61 5.8399 3.213199 32.356595 -2.458615
2012-03-15 11:17:47 51°24.689 2°43.674 5.8636 3.212681 32.362593 -2.458615
2012-03-15 11:18:47 51°24.795 2°43.784 5.7997 3.212475 32.362095 -2.458615
2012-03-15 11:19:47 51°24.925 2°43.922 5.8096 3.209371 32.389099 -2.458615
2012-03-15 11:20:47 51°25.075 2°44.1 5.7736 3.212578 32.365061 -2.458615
2012-03-15 11:21:47 51°25.218 2°44.315 5.7816 3.208543 32.387112 -2.458615
2012-03-15 11:22:47 51°25.372 2°44.511 5.7609 3.207819 32.345448 -2.458615
2012-03-15 11:23:47 51°25.517 2°44.721 5.7502 3.204715 32.356111 -2.458615
2012-03-15 11:24:47 51°25.67 2°44.917 5.771 3.202335 32.33313 -2.458615
2012-03-15 11:25:47 51°25.824 2°45.113 5.7715 3.202853 32.334378 -2.458615
2012-03-15 11:26:47 51°25.973 2°45.317 5.7439 3.20037 32.328385 -2.458615
2012-03-15 11:27:47 51°26.132 2°45.502 5.7822 3.198197 32.30045 -2.458615
2012-03-15 11:28:47 51°26.279 2°45.711 5.7299 3.20068 32.322782 -2.458615
2012-03-15 11:29:47 51°26.434 2°45.905 5.7448 3.196231 32.30295 -2.458615
2012-03-15 11:30:47 51°26.597 2°46.083 5.7954 3.208854 32.425145 -2.458615
2012-03-15 11:31:47 51°26.758 2°46.27 5.8026 3.212682 32.425204 -2.458615
2012-03-15 11:32:47 51°26.902 2°46.486 5.7961 3.214545 32.441479 -2.458615
2012-03-15 11:33:47 51°27.05 2°46.698 5.8011 3.215269 32.462318 -2.458615
2012-03-15 11:34:47 51°27.213 2°46.882 5.8444 3.217235 32.475198 -2.458615
2012-03-15 11:35:47 51°27.371 2°47.076 5.7981 3.220856 32.486546 -2.458615
2012-03-15 11:36:47 51°27.523 2°47.276 5.746 3.220443 32.533876 -2.458615
2012-03-15 11:37:47 51°27.685 2°47.457 5.7923 3.219201 32.540984 -2.458615
2012-03-15 11:38:47 51°27.838 2°47.659 5.8645 3.223236 32.54779 -2.458615
2012-03-15 11:39:47 51°27.989 2°47.862 5.9372 3.229651 32.547459 -2.458615
2012-03-15 11:40:47 51°28.155 2°48.04 5.9427 3.23472 32.519465 -2.458615
2012-03-15 11:41:47 51°28.314 2°48.236 5.9576 3.232444 32.513161 -2.458615
2012-03-15 11:42:47 51°28.465 2°48.44 5.801 3.229236 32.507367 -2.458615
2012-03-15 11:43:46 51°28.627 2°48.611 5.7469 3.216407 32.492365 -2.458615
2012-03-15 11:44:47 51°28.801 2°48.779 5.7548 3.209475 32.440292 -2.458615
2012-03-15 11:45:47 51°28.964 2°48.96 5.7553 3.207406 32.408932 -2.458615
2012-03-15 11:46:47 51°29.111 2°49.166 5.7257 3.208544 32.421671 -2.458615
2012-03-15 11:47:47 51°29.267 2°49.356 5.7292 3.207613 32.431285 -2.458615
2012-03-15 11:48:47 51°29.421 2°49.551 5.688 3.205544 32.418131 -2.458615
2012-03-15 11:49:47 51°29.582 2°49.735 5.6591 3.200991 32.413612 -2.458615
2012-03-15 11:50:47 51°29.746 2°49.915 5.6858 3.198094 32.385682 -2.458615
2012-03-15 11:51:47 51°29.9 2°50.117 5.7359 3.202854 32.4126 -2.458615
2012-03-15 11:52:47 51°30.066 2°50.291 5.8112 3.211338 32.455675 -2.458615
2012-03-15 11:53:47 51°30.196 2°50.519 5.8492 3.225512 32.536756 -2.458615
2012-03-15 11:54:47 51°30.311 2°50.766 5.849 3.239585 32.683088 -2.458615
2012-03-15 11:55:47 51°30.436 2°51.002 5.8492 3.241758 32.711962 -2.458615
2012-03-15 11:56:47 51°30.574 2°51.218 5.8691 3.241447 32.700248 -2.458615
2012-03-15 11:57:47 51°30.692 2°51.465 5.8235 3.241137 32.698609 -2.458615
2012-03-15 11:58:47 51°30.816 2°51.702 5.8546 3.237619 32.677583 -2.458615
2012-03-15 11:59:47 51°30.947 2°51.929 5.8436 3.238343 32.66189 -2.458615
2012-03-15 12:00:47 51°31.078 2°52.151 5.8327 3.235963 32.656323 -2.458615
2012-03-15 12:01:47 51°31.155 2°52.284 5.8421 3.234514 32.628241 -2.458615
2012-03-15 12:02:47 51°31.208 2°52.376 5.8573 3.232031 32.585885 -2.458615
2012-03-15 12:03:46 51°31.234 2°52.467 5.8733 3.234307 32.603103 -2.458615
2012-03-15 12:04:47 51°31.223 2°52.472 5.8543 3.235238 32.548841 -2.458615
2012-03-15 12:05:47 51°31.209 2°52.457 5.7122 3.230893 32.611512 -2.458615
2012-03-15 12:06:47 51°31.199 2°52.442 5.694 3.221374 32.585451 -2.458615
2012-03-15 12:07:47 51°31.194 2°52.438 5.7002 3.220029 32.587777 -2.458615
2012-03-15 12:08:47 51°31.192 2°52.443 5.9118 3.22065 32.556292 -2.458615
2012-03-15 12:09:47 51°31.191 2°52.447 5.9638 3.234927 32.529031 -2.458615
2012-03-15 12:10:47 51°31.19 2°52.447 5.8644 3.238549 32.573021 -2.458615
2012-03-15 12:11:47 51°31.19 2°52.445 5.9698 3.23441 32.54234 -2.458615
2012-03-15 12:12:47 51°31.191 2°52.445 6.0234 3.240721 32.544557 -2.458615
2012-03-15 12:13:47 51°31.191 2°52.444 5.9749 3.243825 32.565493 -2.458615
2012-03-15 12:14:47 51°31.191 2°52.443 5.9233 3.240928 32.553209 -2.458615
2012-03-15 12:15:47 51°31.191 2°52.442 5.8258 3.23648 32.588163 -2.458615
2012-03-15 12:16:47 51°31.192 2°52.442 5.8842 3.230582 32.569704 -2.458615
2012-03-15 12:17:47 51°31.191 2°52.442 6.0037 3.233272 32.538738 -2.458615
2012-03-15 12:18:47 51°31.191 2°52.443 5.9945 3.240307 32.56445 -2.458615
2012-03-15 12:19:47 51°31.191 2°52.443 5.9481 3.241756 32.546097 -2.458615
2012-03-15 12:20:47 51°31.191 2°52.443 6.0151 3.238031 32.576348 -2.458615
2012-03-15 12:21:47 51°31.191 2°52.442 5.8925 3.239273 32.554743 -2.458615
2012-03-15 12:22:47 51°31.191 2°52.442 5.9052 3.233272 32.552378 -2.458615
2012-03-15 12:23:47 51°31.191 2°52.443 5.9298 3.234617 32.558285 -2.458615
2012-03-15 12:24:47 51°31.191 2°52.443 5.9466 3.237307 32.547374 -2.458615
2012-03-15 12:25:47 51°31.191 2°52.442 5.8179 3.236066 32.590832 -2.458615
2012-03-15 12:26:47 51°31.191 2°52.442 5.8535 3.228513 32.540213 -2.458615
2012-03-15 12:27:47 51°31.191 2°52.442 5.8949 3.230685 32.548084 -2.458615
2012-03-15 12:28:47 51°31.191 2°52.443 5.9481 3.235237 32.503464 -2.458615
2012-03-15 12:29:47 51°31.191 2°52.442 5.9179 3.237203 32.553487 -2.458615
2012-03-15 12:30:47 51°31.191 2°52.442 5.8483 3.234617 32.561014 -2.458615
2012-03-15 12:31:47 51°31.191 2°52.441 5.8819 3.229858 32.547948 -2.458615
2012-03-15 12:32:46 51°31.191 2°52.442 6.0139 3.231306 32.540452 -2.458615
2012-03-15 12:33:47 51°31.191 2°52.442 6.025 3.243514 32.512243 -2.458615
2012-03-15 12:34:47 51°31.191 2°52.442 5.9442 3.246101 32.543692 -2.458615
2012-03-15 12:35:47 51°31.192 2°52.441 5.9059 3.238135 32.593882 -2.458615
2012-03-15 12:36:47 51°31.192 2°52.442 5.8772 3.233686 32.550627 -2.458615
2012-03-15 12:37:47 51°31.192 2°52.442 5.8442 3.23141 32.557079 -2.458615
2012-03-15 12:38:47 51°31.191 2°52.442 5.8583 3.230479 32.56399 -2.458615
2012-03-15 12:39:47 51°31.191 2°52.442 5.9371 3.230789 32.534679 -2.458615
2012-03-15 12:40:47 51°31.191 2°52.443 6.0103 3.235755 32.523732 -2.458615
2012-03-15 12:41:47 51°31.191 2°52.442 5.8032 3.241135 32.531036 -2.458615
2012-03-15 12:42:47 51°31.191 2°52.442 5.7856 3.227685 32.582034 -2.458615
2012-03-15 12:43:47 51°31.191 2°52.443 5.7779 3.22365 32.56338 -2.458615
2012-03-15 12:44:47 51°31.191 2°52.443 5.7894 3.222822 32.555943 -2.458615
2012-03-15 12:45:47 51°31.191 2°52.443 5.7842 3.223547 32.559481 -2.458615
2012-03-15 12:46:47 51°31.191 2°52.444 5.7913 3.223443 32.56015 -2.458615
2012-03-15 12:47:47 51°31.199 2°52.453 5.7972 3.223754 32.55723 -2.458615
2012-03-15 12:48:47 51°31.209 2°52.466 5.8047 3.224064 32.560703 -2.458615
2012-03-15 12:49:47 51°31.216 2°52.477 5.8232 3.224892 32.556267 -2.458615
2012-03-15 12:50:47 51°31.219 2°52.481 5.8176 3.225926 32.559624 -2.458615
2012-03-15 12:51:47 51°31.217 2°52.48 5.8227 3.22603 32.558956 -2.458615
2012-03-15 12:52:47 51°31.215 2°52.496 5.877 3.226133 32.560113 -2.458615
2012-03-15 12:53:47 51°31.188 2°52.542 5.8487 3.229651 32.552013 -2.458615
2012-03-15 12:54:47 51°31.121 2°52.566 5.8327 3.229444 32.565194 -2.458615
2012-03-15 12:55:47 51°30.992 2°52.605 5.8333 3.227685 32.570165 -2.458615
2012-03-15 12:56:47 51°30.815 2°52.587 5.8123 3.226444 32.562671 -2.458615
2012-03-15 12:57:47 51°30.609 2°52.549 5.7639 3.223236 32.545051 -2.458615
2012-03-15 12:58:47 51°30.391 2°52.504 5.7669 3.218891 32.52746 -2.458615
2012-03-15 12:59:47 51°30.174 2°52.428 5.7929 3.217546 32.513315 -2.458615
2012-03-15 13:00:47 51°29.957 2°52.379 5.8768 3.218994 32.494867 -2.458615
2012-03-15 13:01:47 51°29.745 2°52.325 5.9161 3.222304 32.412851 -2.458615
2012-03-15 13:02:47 51°29.532 2°52.255 5.7835 3.213198 32.338505 -2.458615
2012-03-15 13:03:47 51°29.316 2°52.219 5.7372 3.198507 32.302108 -2.458615
2012-03-15 13:04:47 51°29.1 2°52.177 5.7329 3.190954 32.233028 -2.458615
2012-03-15 13:05:47 51°28.885 2°52.101 5.7346 3.186195 32.190646 -2.458615
2012-03-15 13:06:47 51°28.667 2°52.048 5.7313 3.183816 32.164929 -2.458615
2012-03-15 13:07:47 51°28.45 2°51.962 5.7841 3.183609 32.157192 -2.458615
2012-03-15 13:08:47 51°28.233 2°51.89 5.6992 3.185471 32.162663 -2.458615
2012-03-15 13:09:47 51°28.013 2°51.826 5.72 3.181126 32.159237 -2.458615
2012-03-15 13:10:47 51°27.795 2°51.742 5.8136 3.180091 32.130489 -2.458615
2012-03-15 13:11:47 51°27.576 2°51.714 5.7884 3.184643 32.113736 -2.458615
2012-03-15 13:12:47 51°27.359 2°51.723 5.7944 3.187022 32.146618 -2.458615
2012-03-15 13:13:47 51°27.143 2°51.709 5.7346 3.185367 32.138045 -2.458615
2012-03-15 13:14:47 51°26.979 2°51.696 5.6963 3.176987 32.093062 -2.458615
2012-03-15 13:15:47 51°26.879 2°51.67 5.8057 3.168607 32.019147 -2.458615
2012-03-15 13:16:47 51°26.802 2°51.608 5.8394 3.160019 31.819329 -2.458615
2012-03-15 13:17:47 51°26.715 2°51.576 5.7797 3.147811 31.683302 -2.458615
2012-03-15 13:18:47 51°26.669 2°51.629 5.7422 3.136328 31.598803 -2.458615
2012-03-15 13:19:47 51°26.7 2°51.68 5.7643 3.130017 31.559453 -2.458615
2012-03-15 13:20:47 51°26.718 2°51.684 5.8374 3.131155 31.518149 -2.458615
2012-03-15 13:21:47 51°26.711 2°51.657 5.8058 3.134465 31.530272 -2.458615
2012-03-15 13:22:47 51°26.702 2°51.63 5.7938 3.132706 31.533665 -2.458615
2012-03-15 13:23:47 51°26.702 2°51.626 5.7735 3.13281 31.54543 -2.458615
2012-03-15 13:24:47 51°26.703 2°51.632 5.7428 3.1325 31.56942 -2.458615
2012-03-15 13:25:47 51°26.703 2°51.63 5.7093 3.130742 31.587052 -2.458615
2012-03-15 13:26:47 51°26.702 2°51.625 5.6923 3.129707 31.585269 -2.458615
2012-03-15 13:27:47 51°26.702 2°51.627 5.6906 3.128776 31.586418 -2.458615
2012-03-15 13:28:47 51°26.703 2°51.63 5.6908 3.126501 31.58054 -2.458615
2012-03-15 13:29:47 51°26.703 2°51.628 5.7094 3.126914 31.572723 -2.458615
2012-03-15 13:30:47 51°26.702 2°51.626 5.7002 3.127949 31.564744 -2.458615
2012-03-15 13:31:47 51°26.702 2°51.627 5.7465 3.127431 31.561631 -2.458615
2012-03-15 13:32:47 51°26.703 2°51.628 5.7871 3.130017 31.542619 -2.458615
2012-03-15 13:33:47 51°26.703 2°51.626 5.8059 3.131983 31.545941 -2.458615
2012-03-15 13:34:47 51°26.703 2°51.627 5.8275 3.133638 31.542267 -2.458615
2012-03-15 13:35:47 51°26.702 2°51.627 5.8532 3.135396 31.531803 -2.458615
2012-03-15 13:36:47 51°26.702 2°51.629 5.8466 3.136948 31.542006 -2.458615
2012-03-15 13:37:47 51°26.701 2°51.629 5.8092 3.136017 31.547545 -2.458615
2012-03-15 13:38:47 51°26.701 2°51.628 5.7876 3.134362 31.552102 -2.458615
2012-03-15 13:39:47 51°26.702 2°51.628 5.7721 3.1325 31.551706 -2.458615
2012-03-15 13:40:47 51°26.702 2°51.629 5.7969 3.132396 31.545243 -2.458615
2012-03-15 13:41:47 51°26.702 2°51.629 5.817 3.134051 31.545992 -2.458615
2012-03-15 13:42:47 51°26.702 2°51.629 5.8334 3.135499 31.544438 -2.458615
2012-03-15 13:43:47 51°26.702 2°51.629 5.8494 3.13581 31.545242 -2.458615
2012-03-15 13:44:47 51°26.701 2°51.63 5.8349 3.136844 31.543504 -2.458615
2012-03-15 13:45:47 51°26.701 2°51.629 5.8444 3.136844 31.547037 -2.458615
2012-03-15 13:46:47 51°26.701 2°51.628 5.851 3.13612 31.543395 -2.458615
2012-03-15 13:47:47 51°26.702 2°51.628 5.858 3.137258 31.538395 -2.458615
2012-03-15 13:48:47 51°26.702 2°51.627 5.8723 3.138189 31.533748 -2.458615
2012-03-15 13:49:47 51°26.702 2°51.628 5.8586 3.137879 31.534708 -2.458615
2012-03-15 13:50:47 51°26.701 2°51.629 5.8606 3.137258 31.531335 -2.458615
2012-03-15 13:51:47 51°26.701 2°51.628 5.8799 3.136741 31.522936 -2.458615
2012-03-15 13:52:47 51°26.7 2°51.628 5.8888 3.137568 31.513622 -2.458615
2012-03-15 13:53:47 51°26.701 2°51.627 5.8995 3.137878 31.511785 -2.458615
2012-03-15 13:54:47 51°26.701 2°51.627 5.9478 3.138395 31.506962 -2.458615
2012-03-15 13:55:47 51°26.701 2°51.628 5.997 3.141602 31.489792 -2.458615
2012-03-15 13:56:47 51°26.702 2°51.628 6.0526 3.146153 31.484079 -2.458615
2012-03-15 13:57:47 51°26.702 2°51.629 6.092 3.150188 31.482311 -2.458615
2012-03-15 13:58:47 51°26.702 2°51.628 6.1139 3.152567 31.488497 -2.458615
2012-03-15 13:59:47 51°26.701 2°51.628 6.0825 3.154429 31.495959 -2.458615
2012-03-15 14:00:47 51°26.701 2°51.628 6.0424 3.153395 31.511652 -2.458615
2012-03-15 14:01:47 51°26.701 2°51.628 6.0167 3.150912 31.519236 -2.458615
2012-03-15 14:02:47 51°26.702 2°51.627 6.0672 3.149774 31.518039 -2.458615
2012-03-15 14:03:47 51°26.702 2°51.628 6.0783 3.152878 31.515566 -2.458615
2012-03-15 14:04:47 51°26.701 2°51.628 6.0515 3.154222 31.525187 -2.458615
2012-03-15 14:05:47 51°26.702 2°51.628 6.0298 3.152671 31.535197 -2.458615
2012-03-15 14:06:47 51°26.702 2°51.628 6.0035 3.151326 31.534347 -2.458615
2012-03-15 14:07:47 51°26.702 2°51.628 6.0422 3.149671 31.53445 -2.458615
2012-03-15 14:08:47 51°26.702 2°51.627 6.0356 3.151843 31.528666 -2.458615
2012-03-15 14:09:47 51°26.701 2°51.628 6.0631 3.151947 31.52718 -2.458615
2012-03-15 14:10:47 51°26.701 2°51.628 6.0551 3.153809 31.52762 -2.458615
2012-03-15 14:11:47 51°26.702 2°51.628 6.0582 3.152774 31.532833 -2.458615
2012-03-15 14:12:47 51°26.702 2°51.627 6.0165 3.152671 31.529056 -2.458615
2012-03-15 14:13:47 51°26.702 2°51.627 5.9873 3.150602 31.535983 -2.458615
2012-03-15 14:14:47 51°26.703 2°51.63 5.9756 3.147912 31.539563 -2.458615
2012-03-15 14:15:47 51°26.707 2°51.639 5.9661 3.146671 31.540746 -2.458615
2012-03-15 14:16:47 51°26.71 2°51.655 5.9385 3.14605 31.538259 -2.458615
2012-03-15 14:17:47 51°26.712 2°51.668 5.9473 3.144602 31.54067 -2.458615
2012-03-15 14:18:47 51°26.712 2°51.666 5.9252 3.144809 31.543847 -2.458615
2012-03-15 14:19:47 51°26.712 2°51.665 5.9304 3.143775 31.540288 -2.458615
2012-03-15 14:20:47 51°26.694 2°51.69 5.8816 3.143361 31.551552 -2.458615
2012-03-15 14:21:47 51°26.624 2°51.723 5.9321 3.140982 31.54363 -2.458615
2012-03-15 14:22:47 51°26.488 2°51.727 5.8893 3.143361 31.52601 -2.458615
2012-03-15 14:23:47 51°26.311 2°51.742 5.7482 3.142741 31.601166 -2.458615
2012-03-15 14:24:47 51°26.109 2°51.717 5.684 3.13788 31.647185 -2.458615
2012-03-15 14:25:47 51°25.902 2°51.688 5.6701 3.126501 31.579651 -2.458615
2012-03-15 14:26:47 51°25.697 2°51.706 5.7453 3.118845 31.459582 -2.458615
2012-03-15 14:27:47 51°25.488 2°51.702 5.7215 3.118638 31.426354 -2.458615
2012-03-15 14:28:47 51°25.277 2°51.682 5.7287 3.115224 31.413882 -2.458615
2012-03-15 14:29:47 51°25.068 2°51.69 5.7277 3.114293 31.39379 -2.458615
2012-03-15 14:30:47 51°24.858 2°51.68 5.6849 3.114293 31.39379 -2.458615
2012-03-15 14:31:47 51°24.647 2°51.652 5.7188 3.109431 31.397805 -2.458615
2012-03-15 14:32:47 51°24.439 2°51.657 5.8396 3.107362 31.28926 -2.458615
2012-03-15 14:33:47 51°24.23 2°51.669 5.8612 3.109844 31.248505 -2.458615
2012-03-15 14:34:47 51°24.022 2°51.657 5.9862 3.120705 31.296533 -2.458615
2012-03-15 14:35:47 51°23.814 2°51.65 5.9541 3.121635 31.244903 -2.458615
2012-03-15 14:36:47 51°23.607 2°51.666 5.7899 3.109325 31.165965 -2.458615
2012-03-15 14:37:47 51°23.4 2°51.658 5.7293 3.099706 31.186507 -2.458615
2012-03-15 14:38:47 51°23.191 2°51.645 5.735 3.097017 31.206481 -2.458615
2012-03-15 14:39:47 51°22.984 2°51.648 5.8651 3.093603 31.097667 -2.458615
2012-03-15 14:40:47 51°22.79 2°51.669 5.8516 1.80004 14.509779 -2.458615
2012-03-15 14:41:47 51°22.618 2°51.686 5.8034 0.214851 1.498568 -2.458615
2012-03-15 14:42:47 51°22.453 2°51.685 5.8297 0.080137 0.53659 -2.458615
2012-03-15 14:43:47 51°22.285 2°51.674 5.8426 0.059676 0.376176 -2.458615
2012-03-15 14:44:47 51°22.111 2°51.669 5.8241 0.057311 0.353137 -2.458615
2012-03-15 14:45:47 51°21.936 2°51.692 5.9448 0.055049 0.34744 -2.458615
2012-03-15 14:46:47 51°21.747 2°51.712 6.0844 0.053096 0.344135 -2.458615
2012-03-15 14:47:47 51°21.548 2°51.697 5.9527 0.051759 0.342774 -2.458615
2012-03-15 14:48:47 51°21.348 2°51.675 5.9541 0.050731 0.342515 -2.458615
2012-03-15 14:49:46 51°21.149 2°51.647 5.8882 0.049806 0.340722 -2.458615
2012-03-15 14:50:47 51°20.944 2°51.608 5.8634 0.049189 0.339675 -2.458615
2012-03-15 14:51:47 51°20.744 2°51.533 5.7995 0.048675 0.338977 -2.458615
2012-03-15 14:52:47 51°20.545 2°51.445 5.793 0.048264 0.338515 -2.458615
2012-03-15 14:53:47 51°20.345 2°51.379 5.8305 0.047955 0.338058 -2.458615
2012-03-15 14:54:47 51°20.144 2°51.315 5.8244 0.04775 0.338084 -2.458615
2012-03-15 14:55:47 51°19.944 2°51.232 6.1935 0.047647 0.33822 -2.458615
2012-03-15 14:56:47 51°19.744 2°51.182 6.2947 0.04775 0.33896 -2.458615
2012-03-15 14:57:47 51°19.541 2°51.187 6.4026 0.048058 0.341161 -2.458615
2012-03-15 14:58:46 51°19.34 2°51.171 6.5143 0.048367 0.343371 -2.458615
2012-03-15 14:59:47 51°19.144 2°51.235 6.6054 0.048778 0.346268 -2.458615
2012-03-15 15:00:46 51°18.96 2°51.335 6.7299 0.049189 0.349008 -2.458615
2012-03-15 15:01:47 51°18.767 2°51.43 6.8315 0.049703 0.352448 -2.458615
2012-03-15 15:02:47 51°18.57 2°51.494 6.947 0.050114 0.355207 -2.458615
2012-03-15 15:03:47 51°18.375 2°51.568 7.0566 0.050526 0.357981 -2.458615
2012-03-15 15:04:47 51°18.184 2°51.661 7.1292 0.050834 0.359979 -2.458615
2012-03-15 15:05:47 51°17.993 2°51.752 7.2468 0.051143 0.361975 -2.458615
2012-03-15 15:06:47 51°17.805 2°51.854 7.3413 0.051451 0.36396 -2.458615
2012-03-15 15:07:46 51°17.629 2°51.987 7.4378 0.051657 0.365179 -2.458615
2012-03-15 15:08:46 51°17.445 2°52.113 7.4959 0.051965 0.36715 -2.458615
2012-03-15 15:09:46 51°17.263 2°52.236 7.61 0.052171 0.368392 -2.458615
2012-03-15 15:10:46 51°17.093 2°52.397 7.6979 0.052274 0.368863 -2.458615
2012-03-15 15:11:46 51°16.92 2°52.552 7.7896 0.052376 0.369332 -2.458615
2012-03-15 15:12:46 51°16.741 2°52.691 7.8677 0.052479 0.369829 -2.458615
2012-03-15 15:13:46 51°16.561 2°52.827 7.9608 0.052582 0.370325 -2.458615
2012-03-15 15:14:46 51°16.393 2°52.992 8.0446 0.052582 0.370033 -2.458615
2012-03-15 15:15:46 51°16.217 2°53.132 8.1241 0.052685 0.370519 -2.458615
2012-03-15 15:16:46 51°16.041 2°53.272 8.2152 0.052685 0.370255 -2.458615
2012-03-15 15:17:47 51°15.873 2°53.438 8.2896 0.052685 0.369973 -2.458615
2012-03-15 15:18:46 51°15.706 2°53.589 8.375 0.052685 0.369701 -2.458615
2012-03-15 15:19:46 51°15.553 2°53.775 8.4512 0.052685 0.36942 -2.458615
2012-03-15 15:20:46 51°15.406 2°53.969 8.5231 0.052685 0.36914 -2.458615
2012-03-15 15:21:46 51°15.258 2°54.158 8.616 0.052685 0.368878 -2.458615
2012-03-15 15:22:46 51°15.111 2°54.353 8.6517 0.052685 0.368607 -2.458615
2012-03-15 15:23:46 51°14.961 2°54.544 8.7355 0.052685 0.368328 -2.458615
2012-03-15 15:24:47 51°14.813 2°54.742 8.8158 0.052685 0.368068 -2.458615
2012-03-15 15:25:46 51°14.663 2°54.92 8.8863 0.052582 0.367045 -2.458615
2012-03-15 15:26:46 51°14.505 2°55.089 8.9406 0.052582 0.366777 -2.458615
2012-03-15 15:27:48 51°14.338 2°55.241 9.0337 0.052582 0.366528 -2.458615
2012-03-15 15:28:49 51°14.211 2°55.347 9.0606 0.052582 0.36626 -2.458615
2012-03-15 15:29:50 51°14.1 2°55.434 9.1208 0.052582 0.365985 -2.458615
2012-03-15 15:30:50 51°13.985 2°55.517 9.136 0.052582 0.365718 -2.458615
2012-03-15 15:31:50 51°13.882 2°55.59 9.2075 0.052582 0.365435 -2.458615
2012-03-15 15:32:49 51°13.795 2°55.658 9.2624 0.052479 0.36442 -2.458615
2012-03-15 15:33:49 51°13.738 2°55.734 9.3313 0.052479 0.364147 -2.458615
2012-03-15 15:34:49 51°13.698 2°55.821 9.3992 0.052479 0.363839 -2.458615
2012-03-15 15:35:50 51°13.662 2°55.912 9.468 0.052479 0.363558 -2.458615
2012-03-15 15:36:49 51°13.64 2°55.993 9.5355 0.052479 0.363251 -2.458615
2012-03-15 15:37:50 51°13.636 2°56.018 9.6341 0.052479 0.362962 -2.458615